sensor_id;sensor_type;location;lat;lon;timestamp;temperature;humidity
9949;DHT22;5013;51.840;8.276;2022-08-23T00:00:42;21.60;1.00
9949;DHT22;5013;51.840;8.276;2022-08-23T00:03:08;21.60;1.00
9949;DHT22;5013;51.840;8.276;2022-08-23T00:05:33;21.60;1.00
9949;DHT22;5013;51.840;8.276;2022-08-23T00:07:59;21.60;1.00
9949;DHT22;5013;51.840;8.276;2022-08-23T00:10:24;21.60;1.00
9949;DHT22;5013;51.840;8.276;2022-08-23T00:12:50;21.60;1.00
9949;DHT22;5013;51.840;8.276;2022-08-23T00:15:18;21.70;99.90
9949;DHT22;5013;51.840;8.276;2022-08-23T00:17:45;21.70;99.90
9949;DHT22;5013;51.840;8.276;2022-08-23T00:20:14;21.70;99.90
9949;DHT22;5013;51.840;8.276;2022-08-23T00:22:40;21.70;99.90
9949;DHT22;5013;51.840;8.276;2022-08-23T00:25:08;21.70;99.90
9949;DHT22;5013;51.840;8.276;2022-08-23T00:27:34;21.70;99.90
9949;DHT22;5013;51.840;8.276;2022-08-23T00:30:00;21.70;99.90
9949;DHT22;5013;51.840;8.276;2022-08-23T00:32:29;21.70;99.90
9949;DHT22;5013;51.840;8.276;2022-08-23T00:34:55;21.70;99.90
9949;DHT22;5013;51.840;8.276;2022-08-23T00:37:22;21.70;99.90
9949;DHT22;5013;51.840;8.276;2022-08-23T00:39:47;21.60;99.90
9949;DHT22;5013;51.840;8.276;2022-08-23T00:45:27;21.60;99.90
9949;DHT22;5013;51.840;8.276;2022-08-23T00:48:13;21.60;99.90
9949;DHT22;5013;51.840;8.276;2022-08-23T00:51:34;21.60;99.90
9949;DHT22;5013;51.840;8.276;2022-08-23T00:53:38;21.70;99.90
9949;DHT22;5013;51.840;8.276;2022-08-23T00:56:07;21.70;99.90
9949;DHT22;5013;51.840;8.276;2022-08-23T00:58:34;21.60;99.90
9949;DHT22;5013;51.840;8.276;2022-08-23T01:01:02;21.60;99.90
9949;DHT22;5013;51.840;8.276;2022-08-23T01:03:30;21.60;99.90
9949;DHT22;5013;51.840;8.276;2022-08-23T01:08:33;21.60;99.90
9949;DHT22;5013;51.840;8.276;2022-08-23T01:11:06;21.60;99.90
9949;DHT22;5013;51.840;8.276;2022-08-23T01:13:44;21.70;99.90
9949;DHT22;5013;51.840;8.276;2022-08-23T01:16:16;21.70;99.90
9949;DHT22;5013;51.840;8.276;2022-08-23T01:18:43;21.70;99.90
9949;DHT22;5013;51.840;8.276;2022-08-23T01:21:10;21.70;99.90
9949;DHT22;5013;51.840;8.276;2022-08-23T01:23:43;21.70;99.90
9949;DHT22;5013;51.840;8.276;2022-08-23T01:26:10;21.70;99.90
9949;DHT22;5013;51.840;8.276;2022-08-23T01:28:37;21.70;99.90
9949;DHT22;5013;51.840;8.276;2022-08-23T01:31:06;21.60;99.90
9949;DHT22;5013;51.840;8.276;2022-08-23T01:33:32;21.60;99.90
9949;DHT22;5013;51.840;8.276;2022-08-23T01:35:57;21.60;99.90
9949;DHT22;5013;51.840;8.276;2022-08-23T01:38:24;21.60;99.90
9949;DHT22;5013;51.840;8.276;2022-08-23T01:40:51;21.60;99.90
9949;DHT22;5013;51.840;8.276;2022-08-23T01:43:17;21.60;99.90
9949;DHT22;5013;51.840;8.276;2022-08-23T01:45:45;21.60;99.90
9949;DHT22;5013;51.840;8.276;2022-08-23T01:48:11;21.50;99.90
9949;DHT22;5013;51.840;8.276;2022-08-23T01:50:37;21.60;99.90
9949;DHT22;5013;51.840;8.276;2022-08-23T01:53:03;21.60;99.90
9949;DHT22;5013;51.840;8.276;2022-08-23T01:55:29;21.50;99.90
9949;DHT22;5013;51.840;8.276;2022-08-23T01:57:57;21.50;99.90
9949;DHT22;5013;51.840;8.276;2022-08-23T02:00:29;21.50;99.90
9949;DHT22;5013;51.840;8.276;2022-08-23T02:02:56;21.50;99.90
9949;DHT22;5013;51.840;8.276;2022-08-23T02:05:22;21.50;99.90
9949;DHT22;5013;51.840;8.276;2022-08-23T02:07:48;21.40;99.90
9949;DHT22;5013;51.840;8.276;2022-08-23T02:10:14;21.40;99.90
9949;DHT22;5013;51.840;8.276;2022-08-23T02:12:40;21.30;99.90
9949;DHT22;5013;51.840;8.276;2022-08-23T02:15:06;21.20;99.90
9949;DHT22;5013;51.840;8.276;2022-08-23T02:17:32;21.20;99.90
9949;DHT22;5013;51.840;8.276;2022-08-23T02:19:58;21.10;99.90
9949;DHT22;5013;51.840;8.276;2022-08-23T02:22:24;21.10;99.90
9949;DHT22;5013;51.840;8.276;2022-08-23T02:24:49;21.00;99.90
9949;DHT22;5013;51.840;8.276;2022-08-23T02:27:16;21.00;99.90
9949;DHT22;5013;51.840;8.276;2022-08-23T02:29:45;21.00;99.90
9949;DHT22;5013;51.840;8.276;2022-08-23T02:32:14;21.00;99.90
9949;DHT22;5013;51.840;8.276;2022-08-23T02:34:40;20.90;99.90
9949;DHT22;5013;51.840;8.276;2022-08-23T02:37:07;20.90;99.90
9949;DHT22;5013;51.840;8.276;2022-08-23T02:39:34;20.80;99.90
9949;DHT22;5013;51.840;8.276;2022-08-23T02:42:00;20.70;99.90
9949;DHT22;5013;51.840;8.276;2022-08-23T02:44:26;20.70;99.90
9949;DHT22;5013;51.840;8.276;2022-08-23T02:46:52;20.60;99.90
9949;DHT22;5013;51.840;8.276;2022-08-23T02:49:18;20.60;99.90
9949;DHT22;5013;51.840;8.276;2022-08-23T02:51:44;20.60;99.90
9949;DHT22;5013;51.840;8.276;2022-08-23T02:54:09;20.50;99.90
9949;DHT22;5013;51.840;8.276;2022-08-23T02:56:35;20.50;99.90
9949;DHT22;5013;51.840;8.276;2022-08-23T02:59:01;20.40;99.90
9949;DHT22;5013;51.840;8.276;2022-08-23T03:01:30;20.40;99.90
9949;DHT22;5013;51.840;8.276;2022-08-23T03:03:56;20.40;99.90
9949;DHT22;5013;51.840;8.276;2022-08-23T03:06:23;20.40;99.90
9949;DHT22;5013;51.840;8.276;2022-08-23T03:08:49;20.40;99.90
9949;DHT22;5013;51.840;8.276;2022-08-23T03:11:17;20.30;99.90
9949;DHT22;5013;51.840;8.276;2022-08-23T03:13:45;20.20;99.90
9949;DHT22;5013;51.840;8.276;2022-08-23T03:16:11;20.10;99.90
9949;DHT22;5013;51.840;8.276;2022-08-23T03:18:38;20.10;99.90
9949;DHT22;5013;51.840;8.276;2022-08-23T03:21:05;20.10;99.90
9949;DHT22;5013;51.840;8.276;2022-08-23T03:23:31;20.10;99.90
9949;DHT22;5013;51.840;8.276;2022-08-23T03:25:57;20.00;99.90
9949;DHT22;5013;51.840;8.276;2022-08-23T03:28:23;20.00;99.90
9949;DHT22;5013;51.840;8.276;2022-08-23T03:30:49;20.00;99.90
9949;DHT22;5013;51.840;8.276;2022-08-23T03:33:15;20.00;99.90
9949;DHT22;5013;51.840;8.276;2022-08-23T03:35:41;20.00;99.90
9949;DHT22;5013;51.840;8.276;2022-08-23T03:38:07;20.00;99.90
9949;DHT22;5013;51.840;8.276;2022-08-23T03:40:33;20.00;99.90
9949;DHT22;5013;51.840;8.276;2022-08-23T03:42:59;19.90;99.90
9949;DHT22;5013;51.840;8.276;2022-08-23T03:45:26;19.90;99.90
9949;DHT22;5013;51.840;8.276;2022-08-23T03:47:52;19.90;99.90
9949;DHT22;5013;51.840;8.276;2022-08-23T03:50:18;19.90;99.90
9949;DHT22;5013;51.840;8.276;2022-08-23T03:52:44;19.90;99.90
9949;DHT22;5013;51.840;8.276;2022-08-23T03:55:11;19.80;99.90
9949;DHT22;5013;51.840;8.276;2022-08-23T03:57:37;19.80;99.90
9949;DHT22;5013;51.840;8.276;2022-08-23T04:00:05;19.80;99.90
9949;DHT22;5013;51.840;8.276;2022-08-23T04:02:31;19.80;99.90
9949;DHT22;5013;51.840;8.276;2022-08-23T04:04:57;19.70;99.90
9949;DHT22;5013;51.840;8.276;2022-08-23T04:07:24;19.70;99.90
9949;DHT22;5013;51.840;8.276;2022-08-23T04:09:50;19.70;99.90
9949;DHT22;5013;51.840;8.276;2022-08-23T04:12:15;19.70;1.00
9949;DHT22;5013;51.840;8.276;2022-08-23T04:14:41;19.70;99.90
9949;DHT22;5013;51.840;8.276;2022-08-23T04:17:07;19.60;1.00
9949;DHT22;5013;51.840;8.276;2022-08-23T04:19:32;19.60;1.00
9949;DHT22;5013;51.840;8.276;2022-08-23T04:21:58;19.60;1.00
9949;DHT22;5013;51.840;8.276;2022-08-23T04:24:24;19.50;1.00
9949;DHT22;5013;51.840;8.276;2022-08-23T04:26:50;19.50;1.00
9949;DHT22;5013;51.840;8.276;2022-08-23T04:29:16;19.50;1.00
9949;DHT22;5013;51.840;8.276;2022-08-23T04:31:45;19.50;1.00
9949;DHT22;5013;51.840;8.276;2022-08-23T04:34:11;19.40;1.00
9949;DHT22;5013;51.840;8.276;2022-08-23T04:36:39;19.50;1.00
9949;DHT22;5013;51.840;8.276;2022-08-23T04:39:06;19.40;1.00
9949;DHT22;5013;51.840;8.276;2022-08-23T04:41:31;19.40;1.00
9949;DHT22;5013;51.840;8.276;2022-08-23T04:44:16;19.40;1.00
9949;DHT22;5013;51.840;8.276;2022-08-23T04:46:42;19.40;1.00
9949;DHT22;5013;51.840;8.276;2022-08-23T04:49:09;19.40;1.00
9949;DHT22;5013;51.840;8.276;2022-08-23T04:51:34;19.40;1.00
9949;DHT22;5013;51.840;8.276;2022-08-23T04:54:00;19.40;1.00
9949;DHT22;5013;51.840;8.276;2022-08-23T04:56:26;19.50;1.00
9949;DHT22;5013;51.840;8.276;2022-08-23T04:58:53;19.40;1.00
9949;DHT22;5013;51.840;8.276;2022-08-23T05:01:19;19.40;1.00
9949;DHT22;5013;51.840;8.276;2022-08-23T05:03:44;19.40;1.00
9949;DHT22;5013;51.840;8.276;2022-08-23T05:06:10;19.50;1.00
9949;DHT22;5013;51.840;8.276;2022-08-23T05:08:37;19.50;1.00
9949;DHT22;5013;51.840;8.276;2022-08-23T05:11:05;19.50;1.00
9949;DHT22;5013;51.840;8.276;2022-08-23T05:13:31;19.60;1.00
9949;DHT22;5013;51.840;8.276;2022-08-23T05:15:57;19.60;1.00
9949;DHT22;5013;51.840;8.276;2022-08-23T05:18:24;19.70;1.00
9949;DHT22;5013;51.840;8.276;2022-08-23T05:20:50;19.70;1.00
9949;DHT22;5013;51.840;8.276;2022-08-23T05:23:16;19.70;1.00
9949;DHT22;5013;51.840;8.276;2022-08-23T05:25:41;19.80;1.00
9949;DHT22;5013;51.840;8.276;2022-08-23T05:28:22;19.90;1.00
9949;DHT22;5013;51.840;8.276;2022-08-23T05:31:01;20.10;1.00
9949;DHT22;5013;51.840;8.276;2022-08-23T05:33:30;20.20;1.00
9949;DHT22;5013;51.840;8.276;2022-08-23T05:35:56;20.10;1.00
9949;DHT22;5013;51.840;8.276;2022-08-23T05:38:24;20.30;1.00
9949;DHT22;5013;51.840;8.276;2022-08-23T05:40:51;20.40;1.00
9949;DHT22;5013;51.840;8.276;2022-08-23T05:43:18;20.60;99.90
9949;DHT22;5013;51.840;8.276;2022-08-23T05:45:44;20.70;99.90
9949;DHT22;5013;51.840;8.276;2022-08-23T05:48:12;21.00;99.90
9949;DHT22;5013;51.840;8.276;2022-08-23T05:50:38;21.10;99.90
9949;DHT22;5013;51.840;8.276;2022-08-23T05:53:05;21.20;99.90
9949;DHT22;5013;51.840;8.276;2022-08-23T05:55:30;21.30;99.90
9949;DHT22;5013;51.840;8.276;2022-08-23T05:57:56;21.50;99.90
9949;DHT22;5013;51.840;8.276;2022-08-23T06:00:22;21.60;99.90
9949;DHT22;5013;51.840;8.276;2022-08-23T06:02:48;22.00;99.90
9949;DHT22;5013;51.840;8.276;2022-08-23T06:05:15;22.10;99.90
9949;DHT22;5013;51.840;8.276;2022-08-23T06:07:41;22.20;99.90
9949;DHT22;5013;51.840;8.276;2022-08-23T06:10:08;22.30;99.90
9949;DHT22;5013;51.840;8.276;2022-08-23T06:12:33;22.50;99.90
9949;DHT22;5013;51.840;8.276;2022-08-23T06:14:59;22.60;97.90
9949;DHT22;5013;51.840;8.276;2022-08-23T06:17:25;22.60;91.90
9949;DHT22;5013;51.840;8.276;2022-08-23T06:19:51;22.90;99.90
9949;DHT22;5013;51.840;8.276;2022-08-23T06:22:17;23.20;36.90
9949;DHT22;5013;51.840;8.276;2022-08-23T06:24:43;23.30;26.10
9949;DHT22;5013;51.840;8.276;2022-08-23T06:27:09;23.20;20.70
9949;DHT22;5013;51.840;8.276;2022-08-23T06:29:35;23.30;26.80
9949;DHT22;5013;51.840;8.276;2022-08-23T06:32:03;23.70;9.40
9949;DHT22;5013;51.840;8.276;2022-08-23T06:34:34;23.70;1.00
9949;DHT22;5013;51.840;8.276;2022-08-23T06:37:08;23.70;1.10
9949;DHT22;5013;51.840;8.276;2022-08-23T06:39:34;23.90;1.00
9949;DHT22;5013;51.840;8.276;2022-08-23T06:42:11;23.90;1.00
9949;DHT22;5013;51.840;8.276;2022-08-23T06:44:37;24.20;1.00
9949;DHT22;5013;51.840;8.276;2022-08-23T06:47:05;24.10;1.00
9949;DHT22;5013;51.840;8.276;2022-08-23T06:49:32;24.30;1.00
9949;DHT22;5013;51.840;8.276;2022-08-23T06:51:58;24.10;1.00
9949;DHT22;5013;51.840;8.276;2022-08-23T06:54:27;24.30;1.00
9949;DHT22;5013;51.840;8.276;2022-08-23T06:56:54;24.50;1.00
9949;DHT22;5013;51.840;8.276;2022-08-23T06:59:20;24.30;1.00
9949;DHT22;5013;51.840;8.276;2022-08-23T07:01:54;24.40;1.00
9949;DHT22;5013;51.840;8.276;2022-08-23T07:04:40;24.50;1.00
9949;DHT22;5013;51.840;8.276;2022-08-23T07:07:07;24.80;1.00
9949;DHT22;5013;51.840;8.276;2022-08-23T07:09:33;24.60;1.00
9949;DHT22;5013;51.840;8.276;2022-08-23T07:11:59;24.60;1.00
9949;DHT22;5013;51.840;8.276;2022-08-23T07:14:26;24.70;1.00
9949;DHT22;5013;51.840;8.276;2022-08-23T07:16:55;24.90;1.00
9949;DHT22;5013;51.840;8.276;2022-08-23T07:19:23;24.90;1.00
9949;DHT22;5013;51.840;8.276;2022-08-23T07:21:52;25.30;1.00
9949;DHT22;5013;51.840;8.276;2022-08-23T07:24:22;25.10;1.00
9949;DHT22;5013;51.840;8.276;2022-08-23T07:26:49;25.00;1.00
9949;DHT22;5013;51.840;8.276;2022-08-23T07:29:17;25.10;1.00
9949;DHT22;5013;51.840;8.276;2022-08-23T07:31:46;24.90;1.00
9949;DHT22;5013;51.840;8.276;2022-08-23T07:34:13;24.90;1.00
9949;DHT22;5013;51.840;8.276;2022-08-23T07:36:40;24.90;1.00
9949;DHT22;5013;51.840;8.276;2022-08-23T07:39:07;24.90;1.00
9949;DHT22;5013;51.840;8.276;2022-08-23T07:41:33;24.70;1.00
9949;DHT22;5013;51.840;8.276;2022-08-23T07:44:01;24.80;1.00
9949;DHT22;5013;51.840;8.276;2022-08-23T07:46:28;25.20;1.00
9949;DHT22;5013;51.840;8.276;2022-08-23T07:48:56;25.30;1.00
9949;DHT22;5013;51.840;8.276;2022-08-23T07:51:23;25.00;1.00
9949;DHT22;5013;51.840;8.276;2022-08-23T07:53:51;24.80;1.00
9949;DHT22;5013;51.840;8.276;2022-08-23T07:56:18;24.70;1.00
9949;DHT22;5013;51.840;8.276;2022-08-23T07:58:45;24.90;1.00
9949;DHT22;5013;51.840;8.276;2022-08-23T08:01:17;25.10;1.00
9949;DHT22;5013;51.840;8.276;2022-08-23T08:03:44;25.30;1.00
9949;DHT22;5013;51.840;8.276;2022-08-23T08:06:14;25.30;1.00
9949;DHT22;5013;51.840;8.276;2022-08-23T08:08:41;25.60;1.00
9949;DHT22;5013;51.840;8.276;2022-08-23T08:11:11;25.80;1.00
9949;DHT22;5013;51.840;8.276;2022-08-23T08:13:39;26.10;1.00
9949;DHT22;5013;51.840;8.276;2022-08-23T08:16:06;26.60;1.00
9949;DHT22;5013;51.840;8.276;2022-08-23T08:18:36;26.40;1.00
9949;DHT22;5013;51.840;8.276;2022-08-23T08:21:02;26.70;1.00
9949;DHT22;5013;51.840;8.276;2022-08-23T08:23:28;27.00;1.00
9949;DHT22;5013;51.840;8.276;2022-08-23T08:26:03;26.60;1.00
9949;DHT22;5013;51.840;8.276;2022-08-23T08:28:30;26.10;1.00
9949;DHT22;5013;51.840;8.276;2022-08-23T08:30:56;26.10;1.00
9949;DHT22;5013;51.840;8.276;2022-08-23T08:33:21;25.80;1.00
9949;DHT22;5013;51.840;8.276;2022-08-23T08:35:47;26.00;1.00
9949;DHT22;5013;51.840;8.276;2022-08-23T08:38:13;26.00;1.00
9949;DHT22;5013;51.840;8.276;2022-08-23T08:40:39;25.90;1.00
9949;DHT22;5013;51.840;8.276;2022-08-23T08:43:29;25.70;1.00
9949;DHT22;5013;51.840;8.276;2022-08-23T08:46:01;25.60;1.00
9949;DHT22;5013;51.840;8.276;2022-08-23T08:48:29;25.60;1.00
9949;DHT22;5013;51.840;8.276;2022-08-23T08:51:00;25.60;1.00
9949;DHT22;5013;51.840;8.276;2022-08-23T08:53:36;26.00;1.00
9949;DHT22;5013;51.840;8.276;2022-08-23T08:56:18;26.50;1.00
9949;DHT22;5013;51.840;8.276;2022-08-23T08:58:54;27.00;1.00
9949;DHT22;5013;51.840;8.276;2022-08-23T09:01:23;27.40;1.00
9949;DHT22;5013;51.840;8.276;2022-08-23T09:03:52;27.30;1.00
9949;DHT22;5013;51.840;8.276;2022-08-23T09:06:27;27.20;1.00
9949;DHT22;5013;51.840;8.276;2022-08-23T09:17:47;27.60;1.00
9949;DHT22;5013;51.840;8.276;2022-08-23T09:20:15;27.60;1.00
9949;DHT22;5013;51.840;8.276;2022-08-23T09:22:52;27.70;1.00
9949;DHT22;5013;51.840;8.276;2022-08-23T09:25:23;28.10;1.00
9949;DHT22;5013;51.840;8.276;2022-08-23T09:27:49;28.40;1.00
9949;DHT22;5013;51.840;8.276;2022-08-23T09:30:18;28.10;1.00
9949;DHT22;5013;51.840;8.276;2022-08-23T09:32:45;28.20;1.00
9949;DHT22;5013;51.840;8.276;2022-08-23T09:35:22;28.30;1.00
9949;DHT22;5013;51.840;8.276;2022-08-23T09:40:28;28.70;1.00
9949;DHT22;5013;51.840;8.276;2022-08-23T09:45:59;28.90;1.00
9949;DHT22;5013;51.840;8.276;2022-08-23T09:48:41;28.50;1.00
9949;DHT22;5013;51.840;8.276;2022-08-23T09:53:40;29.10;1.00
9949;DHT22;5013;51.840;8.276;2022-08-23T09:56:13;29.40;1.00
9949;DHT22;5013;51.840;8.276;2022-08-23T09:58:44;29.60;1.00
9949;DHT22;5013;51.840;8.276;2022-08-23T10:01:26;29.50;1.00
9949;DHT22;5013;51.840;8.276;2022-08-23T10:04:11;29.10;1.00
9949;DHT22;5013;51.840;8.276;2022-08-23T10:06:39;29.20;1.00
9949;DHT22;5013;51.840;8.276;2022-08-23T10:09:07;29.40;1.00
9949;DHT22;5013;51.840;8.276;2022-08-23T10:11:44;29.60;1.00
9949;DHT22;5013;51.840;8.276;2022-08-23T10:14:16;29.30;1.00
9949;DHT22;5013;51.840;8.276;2022-08-23T10:19:54;29.10;1.00
9949;DHT22;5013;51.840;8.276;2022-08-23T10:22:23;29.20;1.00
9949;DHT22;5013;51.840;8.276;2022-08-23T10:25:10;29.20;1.00
9949;DHT22;5013;51.840;8.276;2022-08-23T10:33:19;30.00;1.00
9949;DHT22;5013;51.840;8.276;2022-08-23T10:38:39;29.60;1.00
9949;DHT22;5013;51.840;8.276;2022-08-23T10:41:36;29.60;1.00
9949;DHT22;5013;51.840;8.276;2022-08-23T10:44:24;29.80;1.00
9949;DHT22;5013;51.840;8.276;2022-08-23T10:49:49;30.20;1.00
9949;DHT22;5013;51.840;8.276;2022-08-23T10:52:23;30.50;1.00
9949;DHT22;5013;51.840;8.276;2022-08-23T10:55:00;30.40;1.00
9949;DHT22;5013;51.840;8.276;2022-08-23T10:57:42;30.30;1.00
9949;DHT22;5013;51.840;8.276;2022-08-23T11:00:16;30.60;1.00
9949;DHT22;5013;51.840;8.276;2022-08-23T11:02:53;30.70;1.00
9949;DHT22;5013;51.840;8.276;2022-08-23T11:05:32;30.70;1.00
9949;DHT22;5013;51.840;8.276;2022-08-23T11:08:05;31.00;1.00
9949;DHT22;5013;51.840;8.276;2022-08-23T11:23:41;31.20;1.00
9949;DHT22;5013;51.840;8.276;2022-08-23T11:26:59;31.50;1.00
9949;DHT22;5013;51.840;8.276;2022-08-23T11:31:35;31.60;1.00
9949;DHT22;5013;51.840;8.276;2022-08-23T11:42:24;31.00;1.00
9949;DHT22;5013;51.840;8.276;2022-08-23T11:44:51;30.70;1.00
9949;DHT22;5013;51.840;8.276;2022-08-23T11:47:27;30.60;1.00
9949;DHT22;5013;51.840;8.276;2022-08-23T11:50:05;30.30;1.00
9949;DHT22;5013;51.840;8.276;2022-08-23T11:53:07;30.30;1.00
9949;DHT22;5013;51.840;8.276;2022-08-23T11:56:15;30.20;1.00
9949;DHT22;5013;51.840;8.276;2022-08-23T12:01:39;30.60;1.00
9949;DHT22;5013;51.840;8.276;2022-08-23T12:04:11;31.00;1.00
9949;DHT22;5013;51.840;8.276;2022-08-23T12:06:52;31.20;1.00
9949;DHT22;5013;51.840;8.276;2022-08-23T12:23:02;32.00;1.00
9949;DHT22;5013;51.840;8.276;2022-08-23T12:25:30;31.50;1.00
9949;DHT22;5013;51.840;8.276;2022-08-23T12:30:35;31.40;1.00
9949;DHT22;5013;51.840;8.276;2022-08-23T12:39:30;32.10;1.00
9949;DHT22;5013;51.840;8.276;2022-08-23T12:44:29;32.70;1.00
9949;DHT22;5013;51.840;8.276;2022-08-23T12:46:55;32.80;1.00
9949;DHT22;5013;51.840;8.276;2022-08-23T12:49:32;32.70;1.00
9949;DHT22;5013;51.840;8.276;2022-08-23T12:52:01;32.50;1.00
9949;DHT22;5013;51.840;8.276;2022-08-23T12:54:42;32.30;1.00
9949;DHT22;5013;51.840;8.276;2022-08-23T12:57:13;32.50;1.00
9949;DHT22;5013;51.840;8.276;2022-08-23T13:02:31;32.90;1.00
9949;DHT22;5013;51.840;8.276;2022-08-23T13:05:05;32.50;1.00
9949;DHT22;5013;51.840;8.276;2022-08-23T13:07:34;32.30;1.00
9949;DHT22;5013;51.840;8.276;2022-08-23T13:10:00;32.50;1.00
9949;DHT22;5013;51.840;8.276;2022-08-23T13:12:26;32.70;1.00
9949;DHT22;5013;51.840;8.276;2022-08-23T13:14:53;32.70;1.00
9949;DHT22;5013;51.840;8.276;2022-08-23T13:20:38;32.30;1.00
9949;DHT22;5013;51.840;8.276;2022-08-23T13:23:03;32.50;1.00
9949;DHT22;5013;51.840;8.276;2022-08-23T13:25:36;32.80;1.00
9949;DHT22;5013;51.840;8.276;2022-08-23T13:31:09;32.90;1.00
9949;DHT22;5013;51.840;8.276;2022-08-23T13:33:35;32.90;1.00
9949;DHT22;5013;51.840;8.276;2022-08-23T13:36:15;32.90;1.00
9949;DHT22;5013;51.840;8.276;2022-08-23T13:38:42;33.00;1.00
9949;DHT22;5013;51.840;8.276;2022-08-23T13:41:31;33.10;1.00
9949;DHT22;5013;51.840;8.276;2022-08-23T13:44:03;33.50;1.00
9949;DHT22;5013;51.840;8.276;2022-08-23T13:46:31;33.40;1.00
9949;DHT22;5013;51.840;8.276;2022-08-23T13:49:08;33.50;1.00
9949;DHT22;5013;51.840;8.276;2022-08-23T13:51:35;33.60;1.00
9949;DHT22;5013;51.840;8.276;2022-08-23T13:54:22;33.00;1.00
9949;DHT22;5013;51.840;8.276;2022-08-23T13:56:51;32.70;1.00
9949;DHT22;5013;51.840;8.276;2022-08-23T13:59:28;32.70;1.00
9949;DHT22;5013;51.840;8.276;2022-08-23T14:01:55;33.00;1.00
9949;DHT22;5013;51.840;8.276;2022-08-23T14:04:22;33.10;1.00
9949;DHT22;5013;51.840;8.276;2022-08-23T14:06:47;32.80;1.00
9949;DHT22;5013;51.840;8.276;2022-08-23T14:09:13;32.80;1.00
9949;DHT22;5013;51.840;8.276;2022-08-23T14:11:40;32.90;1.00
9949;DHT22;5013;51.840;8.276;2022-08-23T14:14:05;32.90;1.00
9949;DHT22;5013;51.840;8.276;2022-08-23T14:16:33;32.90;1.00
9949;DHT22;5013;51.840;8.276;2022-08-23T14:19:01;32.80;1.00
9949;DHT22;5013;51.840;8.276;2022-08-23T14:21:27;32.90;1.00
9949;DHT22;5013;51.840;8.276;2022-08-23T14:23:52;32.90;1.00
9949;DHT22;5013;51.840;8.276;2022-08-23T14:26:19;33.10;1.00
9949;DHT22;5013;51.840;8.276;2022-08-23T14:28:46;33.40;1.00
9949;DHT22;5013;51.840;8.276;2022-08-23T14:31:12;33.20;1.00
9949;DHT22;5013;51.840;8.276;2022-08-23T14:33:38;33.10;1.00
9949;DHT22;5013;51.840;8.276;2022-08-23T14:36:04;33.10;1.00
9949;DHT22;5013;51.840;8.276;2022-08-23T14:38:30;33.10;1.00
9949;DHT22;5013;51.840;8.276;2022-08-23T14:40:58;32.90;1.00
9949;DHT22;5013;51.840;8.276;2022-08-23T14:43:26;32.50;1.00
9949;DHT22;5013;51.840;8.276;2022-08-23T14:45:52;32.40;1.00
9949;DHT22;5013;51.840;8.276;2022-08-23T14:48:18;32.60;1.00
9949;DHT22;5013;51.840;8.276;2022-08-23T14:50:44;32.70;1.00
9949;DHT22;5013;51.840;8.276;2022-08-23T14:53:12;32.90;1.00
9949;DHT22;5013;51.840;8.276;2022-08-23T14:55:39;32.90;1.00
9949;DHT22;5013;51.840;8.276;2022-08-23T14:58:05;32.80;1.00
9949;DHT22;5013;51.840;8.276;2022-08-23T15:00:32;32.80;1.00
9949;DHT22;5013;51.840;8.276;2022-08-23T15:03:01;33.00;1.00
9949;DHT22;5013;51.840;8.276;2022-08-23T15:05:28;32.90;1.00
9949;DHT22;5013;51.840;8.276;2022-08-23T15:07:53;32.70;1.00
9949;DHT22;5013;51.840;8.276;2022-08-23T15:10:20;32.70;1.00
9949;DHT22;5013;51.840;8.276;2022-08-23T15:12:46;32.60;1.00
9949;DHT22;5013;51.840;8.276;2022-08-23T15:15:15;32.80;1.00
9949;DHT22;5013;51.840;8.276;2022-08-23T15:17:58;33.20;1.00
9949;DHT22;5013;51.840;8.276;2022-08-23T15:20:33;33.50;1.00
9949;DHT22;5013;51.840;8.276;2022-08-23T15:22:59;33.60;1.00
9949;DHT22;5013;51.840;8.276;2022-08-23T15:25:28;33.60;1.00
9949;DHT22;5013;51.840;8.276;2022-08-23T15:27:55;33.40;1.00
9949;DHT22;5013;51.840;8.276;2022-08-23T15:30:21;33.40;1.00
9949;DHT22;5013;51.840;8.276;2022-08-23T15:32:48;33.10;1.00
9949;DHT22;5013;51.840;8.276;2022-08-23T15:35:15;32.50;1.00
9949;DHT22;5013;51.840;8.276;2022-08-23T15:37:41;32.00;1.00
9949;DHT22;5013;51.840;8.276;2022-08-23T15:40:08;31.70;1.00
9949;DHT22;5013;51.840;8.276;2022-08-23T15:42:34;31.70;1.00
9949;DHT22;5013;51.840;8.276;2022-08-23T15:45:00;31.50;1.00
9949;DHT22;5013;51.840;8.276;2022-08-23T15:47:33;31.50;1.00
9949;DHT22;5013;51.840;8.276;2022-08-23T15:49:59;31.70;1.00
9949;DHT22;5013;51.840;8.276;2022-08-23T15:52:26;31.60;1.00
9949;DHT22;5013;51.840;8.276;2022-08-23T15:54:52;31.50;1.00
9949;DHT22;5013;51.840;8.276;2022-08-23T15:57:26;31.70;1.00
9949;DHT22;5013;51.840;8.276;2022-08-23T15:59:54;31.70;1.00
9949;DHT22;5013;51.840;8.276;2022-08-23T16:02:20;31.80;1.00
9949;DHT22;5013;51.840;8.276;2022-08-23T16:04:45;31.50;1.00
9949;DHT22;5013;51.840;8.276;2022-08-23T16:07:14;31.60;1.00
9949;DHT22;5013;51.840;8.276;2022-08-23T16:09:40;31.70;1.00
9949;DHT22;5013;51.840;8.276;2022-08-23T16:12:06;31.70;1.00
9949;DHT22;5013;51.840;8.276;2022-08-23T16:14:32;31.80;1.00
9949;DHT22;5013;51.840;8.276;2022-08-23T16:16:59;31.80;1.00
9949;DHT22;5013;51.840;8.276;2022-08-23T16:19:26;31.70;1.00
9949;DHT22;5013;51.840;8.276;2022-08-23T16:21:52;31.60;1.00
9949;DHT22;5013;51.840;8.276;2022-08-23T16:24:22;31.50;1.00
9949;DHT22;5013;51.840;8.276;2022-08-23T16:26:48;31.30;1.00
9949;DHT22;5013;51.840;8.276;2022-08-23T16:29:17;31.20;1.00
9949;DHT22;5013;51.840;8.276;2022-08-23T16:31:44;31.20;1.00
9949;DHT22;5013;51.840;8.276;2022-08-23T16:34:15;31.20;1.00
9949;DHT22;5013;51.840;8.276;2022-08-23T16:36:45;31.10;1.00
9949;DHT22;5013;51.840;8.276;2022-08-23T16:39:13;31.10;1.00
9949;DHT22;5013;51.840;8.276;2022-08-23T16:41:39;31.00;1.00
9949;DHT22;5013;51.840;8.276;2022-08-23T16:44:05;30.90;1.00
9949;DHT22;5013;51.840;8.276;2022-08-23T16:46:32;30.70;1.00
9949;DHT22;5013;51.840;8.276;2022-08-23T16:48:58;30.50;1.00
9949;DHT22;5013;51.840;8.276;2022-08-23T16:51:24;30.40;1.00
9949;DHT22;5013;51.840;8.276;2022-08-23T16:53:50;30.30;1.00
9949;DHT22;5013;51.840;8.276;2022-08-23T16:56:16;30.30;1.00
9949;DHT22;5013;51.840;8.276;2022-08-23T16:58:43;30.30;1.00
9949;DHT22;5013;51.840;8.276;2022-08-23T17:01:16;30.40;1.00
9949;DHT22;5013;51.840;8.276;2022-08-23T17:03:44;30.30;1.00
9949;DHT22;5013;51.840;8.276;2022-08-23T17:06:11;30.40;1.00
9949;DHT22;5013;51.840;8.276;2022-08-23T17:08:36;30.40;1.00
9949;DHT22;5013;51.840;8.276;2022-08-23T17:11:04;30.40;1.00
9949;DHT22;5013;51.840;8.276;2022-08-23T17:13:31;30.50;1.00
9949;DHT22;5013;51.840;8.276;2022-08-23T17:15:56;30.50;1.00
9949;DHT22;5013;51.840;8.276;2022-08-23T17:18:22;30.50;1.00
9949;DHT22;5013;51.840;8.276;2022-08-23T17:20:48;30.40;1.00
9949;DHT22;5013;51.840;8.276;2022-08-23T17:23:14;30.30;1.00
9949;DHT22;5013;51.840;8.276;2022-08-23T17:25:40;30.20;1.00
9949;DHT22;5013;51.840;8.276;2022-08-23T17:28:08;30.10;1.00
9949;DHT22;5013;51.840;8.276;2022-08-23T17:30:34;30.00;1.00
9949;DHT22;5013;51.840;8.276;2022-08-23T17:33:00;30.10;1.00
9949;DHT22;5013;51.840;8.276;2022-08-23T17:35:29;30.10;1.00
9949;DHT22;5013;51.840;8.276;2022-08-23T17:37:55;30.00;1.00
9949;DHT22;5013;51.840;8.276;2022-08-23T17:40:28;29.90;1.00
9949;DHT22;5013;51.840;8.276;2022-08-23T17:42:58;29.80;1.00
9949;DHT22;5013;51.840;8.276;2022-08-23T17:45:26;29.60;1.00
9949;DHT22;5013;51.840;8.276;2022-08-23T17:47:52;29.50;1.00
9949;DHT22;5013;51.840;8.276;2022-08-23T17:50:18;29.50;1.00
9949;DHT22;5013;51.840;8.276;2022-08-23T17:52:44;29.40;1.00
9949;DHT22;5013;51.840;8.276;2022-08-23T17:55:12;29.30;1.00
9949;DHT22;5013;51.840;8.276;2022-08-23T17:57:42;29.30;1.00
9949;DHT22;5013;51.840;8.276;2022-08-23T18:00:09;29.20;1.00